sensor_id;sensor_type;location;lat;lon;timestamp;P1;durP1;ratioP1;P2;durP2;ratioP2
47529;SDS011;33272;51.922;7.730;2023-04-15T00:02:13;7.63;;;6.13;;
47529;SDS011;33272;51.922;7.730;2023-04-15T00:04:43;7.47;;;6.20;;
47529;SDS011;33272;51.922;7.730;2023-04-15T00:07:10;6.80;;;5.80;;
47529;SDS011;33272;51.922;7.730;2023-04-15T00:09:38;8.30;;;6.27;;
47529;SDS011;33272;51.922;7.730;2023-04-15T00:12:06;7.70;;;6.23;;
47529;SDS011;33272;51.922;7.730;2023-04-15T00:14:34;7.73;;;5.63;;
47529;SDS011;33272;51.922;7.730;2023-04-15T00:17:01;6.40;;;5.17;;
47529;SDS011;33272;51.922;7.730;2023-04-15T00:19:29;7.07;;;6.00;;
47529;SDS011;33272;51.922;7.730;2023-04-15T00:21:58;7.53;;;6.50;;
47529;SDS011;33272;51.922;7.730;2023-04-15T00:24:25;7.03;;;6.20;;
47529;SDS011;33272;51.922;7.730;2023-04-15T00:26:53;9.40;;;6.33;;
47529;SDS011;33272;51.922;7.730;2023-04-15T00:29:20;8.10;;;6.03;;
47529;SDS011;33272;51.922;7.730;2023-04-15T00:31:47;9.87;;;6.30;;
47529;SDS011;33272;51.922;7.730;2023-04-15T00:34:14;8.13;;;6.87;;
47529;SDS011;33272;51.922;7.730;2023-04-15T00:36:41;6.93;;;6.23;;
47529;SDS011;33272;51.922;7.730;2023-04-15T00:39:10;6.87;;;6.17;;
47529;SDS011;33272;51.922;7.730;2023-04-15T00:41:37;6.70;;;5.97;;
47529;SDS011;33272;51.922;7.730;2023-04-15T00:44:04;6.87;;;6.20;;
47529;SDS011;33272;51.922;7.730;2023-04-15T00:46:32;9.53;;;6.63;;
47529;SDS011;33272;51.922;7.730;2023-04-15T00:49:03;7.40;;;6.70;;
47529;SDS011;33272;51.922;7.730;2023-04-15T00:51:31;7.30;;;6.47;;
47529;SDS011;33272;51.922;7.730;2023-04-15T00:54:00;8.87;;;7.00;;
47529;SDS011;33272;51.922;7.730;2023-04-15T00:56:29;8.43;;;6.93;;
47529;SDS011;33272;51.922;7.730;2023-04-15T00:59:00;7.37;;;6.50;;
47529;SDS011;33272;51.922;7.730;2023-04-15T01:01:27;7.37;;;6.67;;
47529;SDS011;33272;51.922;7.730;2023-04-15T01:03:56;8.97;;;7.00;;
47529;SDS011;33272;51.922;7.730;2023-04-15T01:06:23;9.27;;;7.47;;
47529;SDS011;33272;51.922;7.730;2023-04-15T01:08:51;8.00;;;7.27;;
47529;SDS011;33272;51.922;7.730;2023-04-15T01:11:19;8.00;;;7.17;;
47529;SDS011;33272;51.922;7.730;2023-04-15T01:13:48;8.87;;;7.10;;
47529;SDS011;33272;51.922;7.730;2023-04-15T01:16:15;7.70;;;6.97;;
47529;SDS011;33272;51.922;7.730;2023-04-15T01:18:45;8.73;;;7.83;;
47529;SDS011;33272;51.922;7.730;2023-04-15T01:21:12;8.33;;;7.50;;
47529;SDS011;33272;51.922;7.730;2023-04-15T01:23:39;8.93;;;7.47;;
47529;SDS011;33272;51.922;7.730;2023-04-15T01:26:08;9.03;;;7.47;;
47529;SDS011;33272;51.922;7.730;2023-04-15T01:28:35;8.33;;;7.53;;
47529;SDS011;33272;51.922;7.730;2023-04-15T01:31:06;9.17;;;8.03;;
47529;SDS011;33272;51.922;7.730;2023-04-15T01:33:34;9.10;;;7.83;;
47529;SDS011;33272;51.922;7.730;2023-04-15T01:36:02;9.70;;;8.03;;
47529;SDS011;33272;51.922;7.730;2023-04-15T01:38:31;8.90;;;8.00;;
47529;SDS011;33272;51.922;7.730;2023-04-15T01:40:58;9.53;;;7.40;;
47529;SDS011;33272;51.922;7.730;2023-04-15T01:43:28;8.47;;;7.47;;
47529;SDS011;33272;51.922;7.730;2023-04-15T01:45:55;9.73;;;8.17;;
47529;SDS011;33272;51.922;7.730;2023-04-15T01:48:22;8.20;;;7.30;;
47529;SDS011;33272;51.922;7.730;2023-04-15T01:50:49;9.83;;;7.90;;
47529;SDS011;33272;51.922;7.730;2023-04-15T01:53:16;8.53;;;7.63;;
47529;SDS011;33272;51.922;7.730;2023-04-15T01:55:43;8.20;;;7.40;;
47529;SDS011;33272;51.922;7.730;2023-04-15T01:58:10;7.97;;;7.17;;
47529;SDS011;33272;51.922;7.730;2023-04-15T02:00:39;8.37;;;7.53;;
47529;SDS011;33272;51.922;7.730;2023-04-15T02:03:06;9.37;;;7.93;;
47529;SDS011;33272;51.922;7.730;2023-04-15T02:05:33;8.47;;;7.57;;
47529;SDS011;33272;51.922;7.730;2023-04-15T02:08:00;9.27;;;7.80;;
47529;SDS011;33272;51.922;7.730;2023-04-15T02:10:27;9.13;;;7.83;;
47529;SDS011;33272;51.922;7.730;2023-04-15T02:12:55;8.87;;;7.97;;
47529;SDS011;33272;51.922;7.730;2023-04-15T02:15:22;10.43;;;8.50;;
47529;SDS011;33272;51.922;7.730;2023-04-15T02:17:50;12.43;;;8.23;;
47529;SDS011;33272;51.922;7.730;2023-04-15T02:20:19;9.00;;;8.10;;
47529;SDS011;33272;51.922;7.730;2023-04-15T02:22:47;8.67;;;7.77;;
47529;SDS011;33272;51.922;7.730;2023-04-15T02:25:14;9.60;;;8.33;;
47529;SDS011;33272;51.922;7.730;2023-04-15T02:27:42;11.97;;;8.90;;
47529;SDS011;33272;51.922;7.730;2023-04-15T02:30:09;9.30;;;8.37;;
47529;SDS011;33272;51.922;7.730;2023-04-15T02:32:37;11.07;;;8.67;;
47529;SDS011;33272;51.922;7.730;2023-04-15T02:35:06;11.00;;;8.97;;
47529;SDS011;33272;51.922;7.730;2023-04-15T02:37:34;10.80;;;9.37;;
47529;SDS011;33272;51.922;7.730;2023-04-15T02:40:07;11.53;;;9.43;;
47529;SDS011;33272;51.922;7.730;2023-04-15T02:42:36;11.93;;;9.67;;
47529;SDS011;33272;51.922;7.730;2023-04-15T02:45:04;10.10;;;9.10;;
47529;SDS011;33272;51.922;7.730;2023-04-15T02:47:32;12.27;;;9.93;;
47529;SDS011;33272;51.922;7.730;2023-04-15T02:50:01;10.87;;;9.70;;
47529;SDS011;33272;51.922;7.730;2023-04-15T02:52:30;10.13;;;9.03;;
47529;SDS011;33272;51.922;7.730;2023-04-15T02:54:57;10.57;;;9.53;;
47529;SDS011;33272;51.922;7.730;2023-04-15T02:57:26;11.20;;;9.70;;
47529;SDS011;33272;51.922;7.730;2023-04-15T02:59:53;11.67;;;10.30;;
47529;SDS011;33272;51.922;7.730;2023-04-15T03:02:20;12.10;;;9.93;;
47529;SDS011;33272;51.922;7.730;2023-04-15T03:04:47;10.73;;;9.63;;
47529;SDS011;33272;51.922;7.730;2023-04-15T03:07:16;11.43;;;9.83;;
47529;SDS011;33272;51.922;7.730;2023-04-15T03:09:44;11.67;;;10.17;;
47529;SDS011;33272;51.922;7.730;2023-04-15T03:12:11;12.17;;;9.53;;
47529;SDS011;33272;51.922;7.730;2023-04-15T03:14:39;11.03;;;9.77;;
47529;SDS011;33272;51.922;7.730;2023-04-15T03:17:05;11.73;;;10.30;;
47529;SDS011;33272;51.922;7.730;2023-04-15T03:19:33;11.93;;;10.17;;
47529;SDS011;33272;51.922;7.730;2023-04-15T03:22:00;11.37;;;10.17;;
47529;SDS011;33272;51.922;7.730;2023-04-15T03:24:27;13.13;;;10.40;;
47529;SDS011;33272;51.922;7.730;2023-04-15T03:26:55;13.50;;;10.40;;
47529;SDS011;33272;51.922;7.730;2023-04-15T03:29:22;10.77;;;9.67;;
47529;SDS011;33272;51.922;7.730;2023-04-15T03:31:50;10.63;;;9.53;;
47529;SDS011;33272;51.922;7.730;2023-04-15T03:34:17;12.10;;;10.90;;
47529;SDS011;33272;51.922;7.730;2023-04-15T03:36:45;13.97;;;11.33;;
47529;SDS011;33272;51.922;7.730;2023-04-15T03:39:12;12.80;;;11.47;;
47529;SDS011;33272;51.922;7.730;2023-04-15T03:41:39;12.50;;;10.77;;
47529;SDS011;33272;51.922;7.730;2023-04-15T03:44:07;11.30;;;10.10;;
47529;SDS011;33272;51.922;7.730;2023-04-15T03:46:34;12.20;;;10.73;;
47529;SDS011;33272;51.922;7.730;2023-04-15T03:49:01;11.17;;;10.00;;
47529;SDS011;33272;51.922;7.730;2023-04-15T03:51:30;11.47;;;10.37;;
47529;SDS011;33272;51.922;7.730;2023-04-15T03:53:57;12.10;;;10.77;;
47529;SDS011;33272;51.922;7.730;2023-04-15T03:56:24;13.77;;;11.13;;
47529;SDS011;33272;51.922;7.730;2023-04-15T03:58:51;11.67;;;10.23;;
47529;SDS011;33272;51.922;7.730;2023-04-15T04:01:19;14.43;;;11.23;;
47529;SDS011;33272;51.922;7.730;2023-04-15T04:03:46;11.90;;;10.53;;
47529;SDS011;33272;51.922;7.730;2023-04-15T04:06:13;12.63;;;10.77;;
47529;SDS011;33272;51.922;7.730;2023-04-15T04:08:41;15.43;;;10.80;;
47529;SDS011;33272;51.922;7.730;2023-04-15T04:11:08;12.80;;;11.20;;
47529;SDS011;33272;51.922;7.730;2023-04-15T04:13:35;13.57;;;11.33;;
47529;SDS011;33272;51.922;7.730;2023-04-15T04:16:02;12.67;;;10.87;;
47529;SDS011;33272;51.922;7.730;2023-04-15T04:18:31;14.97;;;11.83;;
47529;SDS011;33272;51.922;7.730;2023-04-15T04:20:58;13.00;;;11.63;;
47529;SDS011;33272;51.922;7.730;2023-04-15T04:23:25;11.77;;;10.37;;
47529;SDS011;33272;51.922;7.730;2023-04-15T04:25:52;14.43;;;11.37;;
47529;SDS011;33272;51.922;7.730;2023-04-15T04:28:19;12.80;;;11.43;;
47529;SDS011;33272;51.922;7.730;2023-04-15T04:30:47;13.97;;;11.43;;
47529;SDS011;33272;51.922;7.730;2023-04-15T04:33:14;11.83;;;10.60;;
47529;SDS011;33272;51.922;7.730;2023-04-15T04:35:42;13.47;;;11.37;;
47529;SDS011;33272;51.922;7.730;2023-04-15T04:38:09;11.80;;;10.50;;
47529;SDS011;33272;51.922;7.730;2023-04-15T04:40:36;12.43;;;11.00;;
47529;SDS011;33272;51.922;7.730;2023-04-15T04:43:03;12.50;;;10.20;;
47529;SDS011;33272;51.922;7.730;2023-04-15T04:45:30;15.13;;;11.40;;
47529;SDS011;33272;51.922;7.730;2023-04-15T04:47:57;13.50;;;11.37;;
47529;SDS011;33272;51.922;7.730;2023-04-15T04:50:24;13.97;;;11.93;;
47529;SDS011;33272;51.922;7.730;2023-04-15T04:52:52;11.73;;;10.37;;
47529;SDS011;33272;51.922;7.730;2023-04-15T04:55:19;12.73;;;11.30;;
47529;SDS011;33272;51.922;7.730;2023-04-15T04:57:46;12.37;;;10.80;;
47529;SDS011;33272;51.922;7.730;2023-04-15T05:00:13;12.83;;;10.67;;
47529;SDS011;33272;51.922;7.730;2023-04-15T05:02:41;13.20;;;10.73;;
47529;SDS011;33272;51.922;7.730;2023-04-15T05:05:08;13.90;;;11.30;;
47529;SDS011;33272;51.922;7.730;2023-04-15T05:07:37;12.30;;;11.03;;
47529;SDS011;33272;51.922;7.730;2023-04-15T05:10:06;12.50;;;11.20;;
47529;SDS011;33272;51.922;7.730;2023-04-15T05:12:34;14.07;;;11.17;;
47529;SDS011;33272;51.922;7.730;2023-04-15T05:15:02;13.77;;;12.27;;
47529;SDS011;33272;51.922;7.730;2023-04-15T05:17:31;13.27;;;11.87;;
47529;SDS011;33272;51.922;7.730;2023-04-15T05:19:59;12.33;;;11.07;;
47529;SDS011;33272;51.922;7.730;2023-04-15T05:22:26;15.27;;;11.20;;
47529;SDS011;33272;51.922;7.730;2023-04-15T05:24:53;13.37;;;11.60;;
47529;SDS011;33272;51.922;7.730;2023-04-15T05:27:22;14.20;;;11.97;;
47529;SDS011;33272;51.922;7.730;2023-04-15T05:29:49;13.00;;;11.63;;
47529;SDS011;33272;51.922;7.730;2023-04-15T05:32:16;13.63;;;11.77;;
47529;SDS011;33272;51.922;7.730;2023-04-15T05:34:43;12.50;;;10.37;;
47529;SDS011;33272;51.922;7.730;2023-04-15T05:37:10;12.73;;;11.43;;
47529;SDS011;33272;51.922;7.730;2023-04-15T05:39:37;11.47;;;10.27;;
47529;SDS011;33272;51.922;7.730;2023-04-15T05:42:04;12.97;;;11.57;;
47529;SDS011;33272;51.922;7.730;2023-04-15T05:44:33;12.10;;;10.90;;
47529;SDS011;33272;51.922;7.730;2023-04-15T05:47:00;11.73;;;10.17;;
47529;SDS011;33272;51.922;7.730;2023-04-15T05:49:27;11.50;;;10.30;;
47529;SDS011;33272;51.922;7.730;2023-04-15T05:51:54;14.93;;;13.33;;
47529;SDS011;33272;51.922;7.730;2023-04-15T05:54:21;15.40;;;13.80;;
47529;SDS011;33272;51.922;7.730;2023-04-15T05:56:49;14.00;;;12.50;;
47529;SDS011;33272;51.922;7.730;2023-04-15T05:59:15;15.03;;;13.30;;
47529;SDS011;33272;51.922;7.730;2023-04-15T06:01:44;16.37;;;13.43;;
47529;SDS011;33272;51.922;7.730;2023-04-15T06:04:12;13.27;;;11.40;;
47529;SDS011;33272;51.922;7.730;2023-04-15T06:06:39;14.13;;;11.77;;
47529;SDS011;33272;51.922;7.730;2023-04-15T06:09:06;17.77;;;15.87;;
47529;SDS011;33272;51.922;7.730;2023-04-15T06:11:33;25.77;;;22.97;;
47529;SDS011;33272;51.922;7.730;2023-04-15T06:14:00;19.87;;;16.03;;
47529;SDS011;33272;51.922;7.730;2023-04-15T06:16:29;17.43;;;15.40;;
47529;SDS011;33272;51.922;7.730;2023-04-15T06:18:58;15.37;;;13.47;;
47529;SDS011;33272;51.922;7.730;2023-04-15T06:21:25;14.67;;;11.10;;
47529;SDS011;33272;51.922;7.730;2023-04-15T06:23:52;11.73;;;10.37;;
47529;SDS011;33272;51.922;7.730;2023-04-15T06:26:20;12.77;;;11.03;;
47529;SDS011;33272;51.922;7.730;2023-04-15T06:28:47;15.73;;;13.90;;
47529;SDS011;33272;51.922;7.730;2023-04-15T06:31:15;14.30;;;11.47;;
47529;SDS011;33272;51.922;7.730;2023-04-15T06:33:42;15.73;;;12.70;;
47529;SDS011;33272;51.922;7.730;2023-04-15T06:36:10;12.97;;;10.40;;
47529;SDS011;33272;51.922;7.730;2023-04-15T06:38:37;12.30;;;10.80;;
47529;SDS011;33272;51.922;7.730;2023-04-15T06:41:04;15.33;;;12.90;;
47529;SDS011;33272;51.922;7.730;2023-04-15T06:43:31;12.57;;;10.87;;
47529;SDS011;33272;51.922;7.730;2023-04-15T06:45:58;12.03;;;10.87;;
47529;SDS011;33272;51.922;7.730;2023-04-15T06:48:26;13.57;;;11.50;;
47529;SDS011;33272;51.922;7.730;2023-04-15T06:50:53;12.50;;;11.20;;
47529;SDS011;33272;51.922;7.730;2023-04-15T06:53:23;13.20;;;11.63;;
47529;SDS011;33272;51.922;7.730;2023-04-15T06:55:51;12.57;;;11.23;;
47529;SDS011;33272;51.922;7.730;2023-04-15T06:58:18;12.47;;;9.93;;
47529;SDS011;33272;51.922;7.730;2023-04-15T07:00:46;13.20;;;10.63;;
47529;SDS011;33272;51.922;7.730;2023-04-15T07:03:13;12.17;;;10.33;;
47529;SDS011;33272;51.922;7.730;2023-04-15T07:05:40;13.07;;;11.13;;
47529;SDS011;33272;51.922;7.730;2023-04-15T07:08:07;15.43;;;11.97;;
47529;SDS011;33272;51.922;7.730;2023-04-15T07:10:36;14.53;;;11.93;;
47529;SDS011;33272;51.922;7.730;2023-04-15T07:13:03;13.87;;;11.47;;
47529;SDS011;33272;51.922;7.730;2023-04-15T07:15:31;13.37;;;11.47;;
47529;SDS011;33272;51.922;7.730;2023-04-15T07:17:58;12.90;;;10.53;;
47529;SDS011;33272;51.922;7.730;2023-04-15T07:20:25;13.47;;;11.23;;
47529;SDS011;33272;51.922;7.730;2023-04-15T07:22:52;12.13;;;10.20;;
47529;SDS011;33272;51.922;7.730;2023-04-15T07:25:19;14.73;;;10.73;;
47529;SDS011;33272;51.922;7.730;2023-04-15T07:27:47;12.13;;;10.83;;
47529;SDS011;33272;51.922;7.730;2023-04-15T07:30:14;12.93;;;10.20;;
47529;SDS011;33272;51.922;7.730;2023-04-15T07:32:42;13.40;;;11.27;;
47529;SDS011;33272;51.922;7.730;2023-04-15T07:35:09;13.87;;;11.13;;
47529;SDS011;33272;51.922;7.730;2023-04-15T07:37:36;13.73;;;11.10;;
47529;SDS011;33272;51.922;7.730;2023-04-15T07:40:03;11.67;;;10.47;;
47529;SDS011;33272;51.922;7.730;2023-04-15T07:42:33;10.87;;;9.50;;
47529;SDS011;33272;51.922;7.730;2023-04-15T07:45:02;12.00;;;10.40;;
47529;SDS011;33272;51.922;7.730;2023-04-15T07:47:29;12.27;;;9.87;;
47529;SDS011;33272;51.922;7.730;2023-04-15T07:49:56;10.40;;;9.03;;
47529;SDS011;33272;51.922;7.730;2023-04-15T07:52:24;10.97;;;8.77;;
47529;SDS011;33272;51.922;7.730;2023-04-15T07:54:51;11.63;;;10.07;;
47529;SDS011;33272;51.922;7.730;2023-04-15T07:57:18;10.83;;;9.67;;
47529;SDS011;33272;51.922;7.730;2023-04-15T07:59:45;13.33;;;9.07;;
47529;SDS011;33272;51.922;7.730;2023-04-15T08:02:13;10.67;;;8.37;;
47529;SDS011;33272;51.922;7.730;2023-04-15T08:04:40;11.43;;;8.97;;
47529;SDS011;33272;51.922;7.730;2023-04-15T08:07:08;10.93;;;9.33;;
47529;SDS011;33272;51.922;7.730;2023-04-15T08:09:35;10.60;;;9.17;;
47529;SDS011;33272;51.922;7.730;2023-04-15T08:12:02;11.07;;;9.00;;
47529;SDS011;33272;51.922;7.730;2023-04-15T08:14:29;10.27;;;9.17;;
47529;SDS011;33272;51.922;7.730;2023-04-15T08:16:56;11.10;;;9.00;;
47529;SDS011;33272;51.922;7.730;2023-04-15T08:19:25;9.97;;;8.93;;
47529;SDS011;33272;51.922;7.730;2023-04-15T08:21:52;9.80;;;8.27;;
47529;SDS011;33272;51.922;7.730;2023-04-15T08:24:19;8.20;;;7.10;;
47529;SDS011;33272;51.922;7.730;2023-04-15T08:26:46;9.60;;;7.93;;
47529;SDS011;33272;51.922;7.730;2023-04-15T08:29:13;9.10;;;8.00;;
47529;SDS011;33272;51.922;7.730;2023-04-15T08:31:40;9.37;;;8.00;;
47529;SDS011;33272;51.922;7.730;2023-04-15T08:34:07;8.67;;;7.60;;
47529;SDS011;33272;51.922;7.730;2023-04-15T08:36:35;9.03;;;7.03;;
47529;SDS011;33272;51.922;7.730;2023-04-15T08:39:02;8.47;;;7.57;;
47529;SDS011;33272;51.922;7.730;2023-04-15T08:41:31;10.43;;;7.33;;
47529;SDS011;33272;51.922;7.730;2023-04-15T08:44:10;9.37;;;8.13;;
47529;SDS011;33272;51.922;7.730;2023-04-15T08:46:40;9.37;;;7.90;;
47529;SDS011;33272;51.922;7.730;2023-04-15T08:49:09;9.77;;;7.77;;
47529;SDS011;33272;51.922;7.730;2023-04-15T08:51:39;10.93;;;8.20;;
47529;SDS011;33272;51.922;7.730;2023-04-15T08:54:07;9.10;;;7.57;;
47529;SDS011;33272;51.922;7.730;2023-04-15T08:56:35;11.00;;;8.53;;
47529;SDS011;33272;51.922;7.730;2023-04-15T08:59:04;8.40;;;6.87;;
47529;SDS011;33272;51.922;7.730;2023-04-15T09:01:32;8.57;;;6.83;;
47529;SDS011;33272;51.922;7.730;2023-04-15T09:03:59;10.07;;;7.53;;
47529;SDS011;33272;51.922;7.730;2023-04-15T09:06:30;8.83;;;7.60;;
47529;SDS011;33272;51.922;7.730;2023-04-15T09:08:59;9.50;;;7.47;;
47529;SDS011;33272;51.922;7.730;2023-04-15T09:11:26;10.87;;;8.37;;
47529;SDS011;33272;51.922;7.730;2023-04-15T09:13:55;11.43;;;7.87;;
47529;SDS011;33272;51.922;7.730;2023-04-15T09:16:22;9.53;;;7.80;;
47529;SDS011;33272;51.922;7.730;2023-04-15T09:18:49;8.57;;;7.10;;
47529;SDS011;33272;51.922;7.730;2023-04-15T09:21:16;10.33;;;7.87;;
47529;SDS011;33272;51.922;7.730;2023-04-15T09:23:53;12.00;;;7.90;;
47529;SDS011;33272;51.922;7.730;2023-04-15T09:26:30;11.00;;;8.47;;
47529;SDS011;33272;51.922;7.730;2023-04-15T09:29:02;10.40;;;7.73;;
47529;SDS011;33272;51.922;7.730;2023-04-15T09:31:31;8.27;;;7.13;;
47529;SDS011;33272;51.922;7.730;2023-04-15T09:33:59;8.77;;;7.83;;
47529;SDS011;33272;51.922;7.730;2023-04-15T09:36:26;8.17;;;7.23;;
47529;SDS011;33272;51.922;7.730;2023-04-15T09:38:54;10.13;;;8.10;;
47529;SDS011;33272;51.922;7.730;2023-04-15T09:41:24;9.83;;;7.67;;
47529;SDS011;33272;51.922;7.730;2023-04-15T09:43:53;9.53;;;7.80;;
47529;SDS011;33272;51.922;7.730;2023-04-15T09:46:22;10.20;;;7.17;;
47529;SDS011;33272;51.922;7.730;2023-04-15T09:49:07;9.23;;;7.43;;
47529;SDS011;33272;51.922;7.730;2023-04-15T09:51:35;10.07;;;8.13;;
47529;SDS011;33272;51.922;7.730;2023-04-15T09:54:02;9.10;;;7.87;;
47529;SDS011;33272;51.922;7.730;2023-04-15T09:56:31;9.30;;;7.10;;
47529;SDS011;33272;51.922;7.730;2023-04-15T09:59:01;10.37;;;7.33;;
47529;SDS011;33272;51.922;7.730;2023-04-15T10:01:30;8.37;;;7.50;;
47529;SDS011;33272;51.922;7.730;2023-04-15T10:03:57;9.63;;;7.63;;
47529;SDS011;33272;51.922;7.730;2023-04-15T10:06:27;8.80;;;7.03;;
47529;SDS011;33272;51.922;7.730;2023-04-15T10:08:56;8.20;;;6.87;;
47529;SDS011;33272;51.922;7.730;2023-04-15T10:11:26;8.13;;;6.80;;
47529;SDS011;33272;51.922;7.730;2023-04-15T10:13:56;9.20;;;7.20;;
47529;SDS011;33272;51.922;7.730;2023-04-15T10:16:25;7.80;;;6.70;;
47529;SDS011;33272;51.922;7.730;2023-04-15T10:18:54;8.50;;;7.13;;
47529;SDS011;33272;51.922;7.730;2023-04-15T10:21:22;8.67;;;7.03;;
47529;SDS011;33272;51.922;7.730;2023-04-15T10:23:50;8.37;;;6.37;;
47529;SDS011;33272;51.922;7.730;2023-04-15T10:26:17;7.10;;;6.13;;
47529;SDS011;33272;51.922;7.730;2023-04-15T10:28:44;7.53;;;6.60;;
47529;SDS011;33272;51.922;7.730;2023-04-15T10:31:13;6.43;;;5.53;;
47529;SDS011;33272;51.922;7.730;2023-04-15T10:33:43;7.50;;;6.37;;
47529;SDS011;33272;51.922;7.730;2023-04-15T10:36:12;7.97;;;5.77;;
47529;SDS011;33272;51.922;7.730;2023-04-15T10:38:41;7.10;;;5.80;;
47529;SDS011;33272;51.922;7.730;2023-04-15T10:41:11;7.73;;;5.93;;
47529;SDS011;33272;51.922;7.730;2023-04-15T10:43:47;7.00;;;6.23;;
47529;SDS011;33272;51.922;7.730;2023-04-15T10:46:23;7.10;;;6.23;;
47529;SDS011;33272;51.922;7.730;2023-04-15T10:49:07;8.37;;;6.40;;
47529;SDS011;33272;51.922;7.730;2023-04-15T10:51:36;6.83;;;5.97;;
47529;SDS011;33272;51.922;7.730;2023-04-15T10:54:07;6.53;;;5.87;;
47529;SDS011;33272;51.922;7.730;2023-04-15T10:56:40;7.13;;;6.20;;
47529;SDS011;33272;51.922;7.730;2023-04-15T10:59:08;8.17;;;6.30;;
47529;SDS011;33272;51.922;7.730;2023-04-15T11:01:54;6.80;;;6.03;;
47529;SDS011;33272;51.922;7.730;2023-04-15T11:07:34;6.43;;;5.70;;
47529;SDS011;33272;51.922;7.730;2023-04-15T11:10:03;6.37;;;5.17;;
47529;SDS011;33272;51.922;7.730;2023-04-15T11:13:20;6.43;;;5.80;;
47529;SDS011;33272;51.922;7.730;2023-04-15T11:15:53;7.67;;;5.97;;
47529;SDS011;33272;51.922;7.730;2023-04-15T11:18:26;6.57;;;5.90;;
47529;SDS011;33272;51.922;7.730;2023-04-15T11:20:58;6.77;;;5.20;;
47529;SDS011;33272;51.922;7.730;2023-04-15T11:23:35;6.20;;;5.17;;
47529;SDS011;33272;51.922;7.730;2023-04-15T11:26:06;5.97;;;5.37;;
47529;SDS011;33272;51.922;7.730;2023-04-15T11:28:36;7.17;;;5.13;;
47529;SDS011;33272;51.922;7.730;2023-04-15T11:31:05;4.67;;;4.17;;
47529;SDS011;33272;51.922;7.730;2023-04-15T11:33:35;4.77;;;3.83;;
47529;SDS011;33272;51.922;7.730;2023-04-15T11:36:04;5.17;;;4.37;;
47529;SDS011;33272;51.922;7.730;2023-04-15T11:38:31;3.90;;;3.17;;
47529;SDS011;33272;51.922;7.730;2023-04-15T11:41:00;3.80;;;3.17;;
47529;SDS011;33272;51.922;7.730;2023-04-15T11:43:28;4.20;;;3.77;;
47529;SDS011;33272;51.922;7.730;2023-04-15T11:46:00;3.90;;;3.50;;
47529;SDS011;33272;51.922;7.730;2023-04-15T11:48:28;4.33;;;3.30;;
47529;SDS011;33272;51.922;7.730;2023-04-15T11:50:58;4.10;;;3.60;;
47529;SDS011;33272;51.922;7.730;2023-04-15T11:53:34;3.70;;;3.27;;
47529;SDS011;33272;51.922;7.730;2023-04-15T11:56:05;4.33;;;3.60;;
47529;SDS011;33272;51.922;7.730;2023-04-15T11:58:35;3.60;;;3.20;;
47529;SDS011;33272;51.922;7.730;2023-04-15T12:01:04;4.23;;;3.40;;
47529;SDS011;33272;51.922;7.730;2023-04-15T12:03:35;4.03;;;3.27;;
47529;SDS011;33272;51.922;7.730;2023-04-15T12:06:08;3.77;;;3.37;;
47529;SDS011;33272;51.922;7.730;2023-04-15T12:11:38;4.67;;;3.13;;
47529;SDS011;33272;51.922;7.730;2023-04-15T12:14:10;4.17;;;3.77;;
47529;SDS011;33272;51.922;7.730;2023-04-15T12:16:45;4.37;;;3.20;;
47529;SDS011;33272;51.922;7.730;2023-04-15T12:19:14;5.03;;;3.30;;
47529;SDS011;33272;51.922;7.730;2023-04-15T12:21:48;3.20;;;2.90;;
47529;SDS011;33272;51.922;7.730;2023-04-15T12:24:18;4.27;;;3.50;;
47529;SDS011;33272;51.922;7.730;2023-04-15T12:26:48;3.87;;;3.40;;
47529;SDS011;33272;51.922;7.730;2023-04-15T12:29:19;5.17;;;3.57;;
47529;SDS011;33272;51.922;7.730;2023-04-15T12:31:52;4.50;;;3.30;;
47529;SDS011;33272;51.922;7.730;2023-04-15T12:34:27;4.27;;;3.27;;
47529;SDS011;33272;51.922;7.730;2023-04-15T12:36:56;4.27;;;3.23;;
47529;SDS011;33272;51.922;7.730;2023-04-15T12:39:25;4.23;;;3.30;;
47529;SDS011;33272;51.922;7.730;2023-04-15T12:41:54;5.03;;;3.90;;
47529;SDS011;33272;51.922;7.730;2023-04-15T12:44:22;3.97;;;3.30;;
47529;SDS011;33272;51.922;7.730;2023-04-15T12:46:49;3.10;;;2.80;;
47529;SDS011;33272;51.922;7.730;2023-04-15T12:49:17;3.27;;;2.97;;
47529;SDS011;33272;51.922;7.730;2023-04-15T12:51:45;4.10;;;2.90;;
47529;SDS011;33272;51.922;7.730;2023-04-15T12:54:14;3.50;;;3.07;;
47529;SDS011;33272;51.922;7.730;2023-04-15T12:56:41;4.03;;;3.33;;
47529;SDS011;33272;51.922;7.730;2023-04-15T12:59:08;4.43;;;3.40;;
47529;SDS011;33272;51.922;7.730;2023-04-15T13:01:38;3.60;;;3.30;;
47529;SDS011;33272;51.922;7.730;2023-04-15T13:04:06;3.83;;;3.43;;
47529;SDS011;33272;51.922;7.730;2023-04-15T13:06:33;3.83;;;3.10;;
47529;SDS011;33272;51.922;7.730;2023-04-15T13:09:00;4.10;;;2.90;;
47529;SDS011;33272;51.922;7.730;2023-04-15T13:11:27;3.20;;;2.90;;
47529;SDS011;33272;51.922;7.730;2023-04-15T13:13:57;4.20;;;3.20;;
47529;SDS011;33272;51.922;7.730;2023-04-15T13:16:26;4.50;;;3.10;;
47529;SDS011;33272;51.922;7.730;2023-04-15T13:18:54;3.87;;;2.67;;
47529;SDS011;33272;51.922;7.730;2023-04-15T13:21:21;3.43;;;3.13;;
47529;SDS011;33272;51.922;7.730;2023-04-15T13:23:48;4.50;;;2.87;;
47529;SDS011;33272;51.922;7.730;2023-04-15T13:26:16;3.27;;;2.70;;
47529;SDS011;33272;51.922;7.730;2023-04-15T13:28:43;3.53;;;2.80;;
47529;SDS011;33272;51.922;7.730;2023-04-15T13:31:11;3.43;;;2.77;;
47529;SDS011;33272;51.922;7.730;2023-04-15T13:33:38;2.73;;;2.43;;
47529;SDS011;33272;51.922;7.730;2023-04-15T13:36:06;4.17;;;2.80;;
47529;SDS011;33272;51.922;7.730;2023-04-15T13:38:34;3.97;;;2.90;;
47529;SDS011;33272;51.922;7.730;2023-04-15T13:41:01;3.27;;;2.60;;
47529;SDS011;33272;51.922;7.730;2023-04-15T13:43:28;3.50;;;2.50;;
47529;SDS011;33272;51.922;7.730;2023-04-15T13:45:57;3.60;;;2.97;;
47529;SDS011;33272;51.922;7.730;2023-04-15T13:48:24;2.43;;;2.23;;
47529;SDS011;33272;51.922;7.730;2023-04-15T13:50:51;3.00;;;2.70;;
47529;SDS011;33272;51.922;7.730;2023-04-15T13:53:19;3.20;;;2.90;;
47529;SDS011;33272;51.922;7.730;2023-04-15T13:55:46;3.57;;;3.27;;
47529;SDS011;33272;51.922;7.730;2023-04-15T13:58:13;4.07;;;2.57;;
47529;SDS011;33272;51.922;7.730;2023-04-15T14:00:42;2.77;;;2.57;;
47529;SDS011;33272;51.922;7.730;2023-04-15T14:03:09;3.73;;;2.67;;
47529;SDS011;33272;51.922;7.730;2023-04-15T14:05:36;3.80;;;2.43;;
47529;SDS011;33272;51.922;7.730;2023-04-15T14:08:03;3.80;;;2.60;;
47529;SDS011;33272;51.922;7.730;2023-04-15T14:10:32;3.40;;;2.70;;
47529;SDS011;33272;51.922;7.730;2023-04-15T14:12:59;3.77;;;2.90;;
47529;SDS011;33272;51.922;7.730;2023-04-15T14:15:26;2.80;;;2.40;;
47529;SDS011;33272;51.922;7.730;2023-04-15T14:17:53;3.40;;;2.60;;
47529;SDS011;33272;51.922;7.730;2023-04-15T14:20:19;3.53;;;3.00;;
47529;SDS011;33272;51.922;7.730;2023-04-15T14:22:46;3.10;;;2.80;;
47529;SDS011;33272;51.922;7.730;2023-04-15T14:25:13;4.10;;;3.70;;
47529;SDS011;33272;51.922;7.730;2023-04-15T14:27:42;3.13;;;2.73;;
47529;SDS011;33272;51.922;7.730;2023-04-15T14:30:10;3.30;;;2.93;;
47529;SDS011;33272;51.922;7.730;2023-04-15T14:32:37;3.57;;;3.00;;
47529;SDS011;33272;51.922;7.730;2023-04-15T14:35:05;3.73;;;3.00;;
47529;SDS011;33272;51.922;7.730;2023-04-15T14:37:32;3.53;;;2.80;;
47529;SDS011;33272;51.922;7.730;2023-04-15T14:40:00;3.13;;;2.67;;
47529;SDS011;33272;51.922;7.730;2023-04-15T14:42:27;2.83;;;2.57;;
47529;SDS011;33272;51.922;7.730;2023-04-15T14:44:55;3.30;;;3.00;;
47529;SDS011;33272;51.922;7.730;2023-04-15T14:47:22;3.10;;;2.80;;
47529;SDS011;33272;51.922;7.730;2023-04-15T14:49:49;4.40;;;3.10;;
47529;SDS011;33272;51.922;7.730;2023-04-15T14:52:16;2.67;;;2.23;;